Airfield :
LOGIN :

Register | Disclaimer

   EN    FR    IT 

 










Legend :    VFR   Marginal VFR   IFR   Intensive IFR   Very Intensive IFR
Visi :
Ceiling :
>= 8 km
>= 3000ft
5 to 8 km
1000 to 3000 ft
1500m to 5 km
500 to 1000 ft
800 to 1500m
200 to 500 ft
< 800m
< 200 ft
Symbols :   Thunderstorms  Fog  Heavy snow  Heavy precipitations  Wind > 20 kt
SIGMETs :     Misc.  Thunderstorms  Icing  Turbulence  Mountain Waves  Volcanic Ashes







- Airport Elevation : 123 ft
- IATA code : BLQ


LIPE - Bologna Guglielmo Marconi

CURRENT METAR :
  • 100220Z 26009KT CAVOK 10/M01 Q1011

EXPIRED METARs :
  • 100150Z 26014KT CAVOK 10/M00 Q1011
  • 100120Z 26011KT CAVOK 10/M01 Q1011
  • 100050Z 27010KT CAVOK 11/M01 Q1010
  • 100020Z 28013KT CAVOK 11/M01 Q1010
  • 092350Z 27010KT CAVOK 11/M02 Q1010

TAF TAF LIPE
Valid from the 10 at 00:00 until the 11 at 00:00 UTC


092300Z 1000/1024 28010KT 6000 SCT015
BECMG 1016/1018 VRB05KT
No reported NOTAMs for that airfield.
3 SIGMETs reported for the Milano FIR (LIMM) :
 
Severe mountain waves
LIMM SIGMET 3 VALID 100145/100545 LIIP
LIMM MILANO FIR SEV MTW FCST N OF LINE N4340 E00724 - N4701 E01222 ABV FL050 STNR NC=
Severe turbulence
LIMM SIGMET 2 VALID 100140/100540 LIIP
LIMM MILANO FIR SEV TURB FCST NE OF LINE N4600 E00748 - N4322 E01311 FL240/350 STNR NC=
Severe turbulence
LIMM SIGMET 1 VALID 100140/100540 LIIP
LIMM MILANO FIR SEV TURB FCST W OF LINE N4639 E01022 - N4323 E01351 ABV FL020 STNR NC=



MET'MAP, your aeronautical weather chart ! - Copyright ORBIFLY December 2007 - Disclaimer

ORBIFLY MET'MAP TEAM :

Programming & Development : Alexandra Zaïnal
Concept & Development : Baudouin d'Aumeries
Co-Development & Prog : Marc-Olivier Méhu
Technical & hardware support : Manuel Goepfert

Contact : metmap@orbifly.com




SOURCES & CREDITS :

   NOAA